Terminal Aerodrome Forecast
Issued by NWS Sterling, VA

Current Version | Previous Version | Text Only | Print | Product List | Glossary Off
Versions: 1 2 3 4 5 6 7 8 9 10 11 12 13 14 15 16 17 18 19 20 21 22

309
FTUS41 KLWX 202042 AAA
TAFIAD
TAF AMD
KIAD 202042Z 2021/2124 17004KT P6SM BKN080
     FM210600 VRB03KT P6SM -SHRA OVC060
     FM211100 VRB03KT P6SM OVC035
     FM211500 34006KT P6SM BKN030
     FM212100 33009KT P6SM BKN035=

USA.gov is the U.S. government's official web portal to all federal, state and local government web resources and services.